Time;durP1;ratioP1;P1;durP2;ratioP2;P2;SDS_P1;SDS_P2;PMS_P1;PMS_P2;Temp;Humidity;BMP_temperature;BMP_pressure;BME280_temperature;BME280_humidity;BME280_pressure;Samples;Min_cycle;Max_cycle;Signal;HPM_P1;HPM_P2
2022/01/20 00:01:45;;;;;;;4.63;4.10;;;;;;;;;;5113983;28;20235;-82
2022/01/20 00:04:24;;;;;;;4.40;3.90;;;;;;;;;;5119829;28;20210;-83
2022/01/20 00:25:56;;;;;;;4.13;3.53;;;;;;;;;;5115359;28;20225;-83
2022/01/20 00:26:42;;;;;;;3.60;3.30;;;;;;;;;;5117686;28;20203;-80
2022/01/20 00:29:19;;;;;;;3.70;3.40;;;;;;;;;;5118223;28;20206;-83
2022/01/20 00:32:01;;;;;;;3.27;3.07;;;;;;;;;;5114736;28;20241;-83
2022/01/20 00:34:52;;;;;;;3.33;3.00;;;;;;;;;;5117749;28;20227;-83
2022/01/20 00:37:18;;;;;;;3.80;3.47;;;;;;;;;;5111680;28;20207;-82
2022/01/20 00:39:46;;;;;;;3.77;3.47;;;;;;;;;;5117544;28;20223;-82
2022/01/20 00:42:14;;;;;;;3.87;3.10;;;;;;;;;;5117860;28;20230;-82
2022/01/20 00:44:43;;;;;;;3.87;3.53;;;;;;;;;;5117333;28;20219;-82
2022/01/20 00:47:13;;;;;;;3.77;3.40;;;;;;;;;;5116494;27;20290;-82
2022/01/20 00:49:40;;;;;;;3.93;3.53;;;;;;;;;;5113099;28;20402;-83
2022/01/20 00:52:08;;;;;;;4.00;3.30;;;;;;;;;;5117576;28;20246;-82
2022/01/20 00:54:36;;;;;;;4.57;3.30;;;;;;;;;;5115518;28;20331;-82
2022/01/20 00:57:04;;;;;;;3.83;3.20;;;;;;;;;;5116790;28;20226;-83
2022/01/20 00:59:32;;;;;;;3.50;3.20;;;;;;;;;;5116658;28;20243;-81
2022/01/20 01:02:01;;;;;;;3.93;3.10;;;;;;;;;;5116739;28;20214;-82
2022/01/20 01:04:29;;;;;;;3.50;2.93;;;;;;;;;;5119399;28;20207;-82
2022/01/20 01:07:17;;;;;;;3.20;2.90;;;;;;;;;;5117772;28;20217;-83
2022/01/20 01:09:45;;;;;;;3.23;2.80;;;;;;;;;;5117762;28;20223;-81
2022/01/20 01:12:17;;;;;;;3.27;2.73;;;;;;;;;;5117981;28;20199;-83
2022/01/20 01:14:49;;;;;;;3.57;3.27;;;;;;;;;;5115132;28;20223;-82
2022/01/20 01:20:17;;;;;;;3.27;2.97;;;;;;;;;;5113899;28;20317;-83
2022/01/20 01:22:45;;;;;;;3.50;3.20;;;;;;;;;;5115247;28;20221;-83
2022/01/20 01:25:12;;;;;;;3.40;3.10;;;;;;;;;;5118428;28;20290;-82
2022/01/20 01:27:42;;;;;;;3.70;3.40;;;;;;;;;;5118896;28;20245;-83
2022/01/20 01:30:20;;;;;;;3.60;3.30;;;;;;;;;;5121324;28;20237;-82
2022/01/20 01:32:54;;;;;;;3.60;3.30;;;;;;;;;;5120559;28;20214;-82
2022/01/20 01:35:22;;;;;;;3.50;3.10;;;;;;;;;;5121252;28;20211;-83
2022/01/20 01:40:37;;;;;;;2.83;2.57;;;;;;;;;;5113634;28;20225;-83
2022/01/20 01:43:13;;;;;;;3.40;2.90;;;;;;;;;;5118095;28;20195;-83
2022/01/20 01:45:41;;;;;;;3.00;2.80;;;;;;;;;;5119222;28;20214;-82
2022/01/20 01:48:10;;;;;;;3.20;2.63;;;;;;;;;;5117581;28;20291;-83
2022/01/20 01:50:37;;;;;;;3.23;2.67;;;;;;;;;;5118917;28;20248;-84
2022/01/20 01:53:06;;;;;;;3.20;2.70;;;;;;;;;;5118197;28;20254;-84
2022/01/20 01:55:34;;;;;;;3.17;2.83;;;;;;;;;;5118002;28;20660;-83
2022/01/20 01:58:01;;;;;;;2.93;2.73;;;;;;;;;;5116528;28;20206;-82
2022/01/20 02:00:30;;;;;;;3.93;2.63;;;;;;;;;;5115683;28;20256;-82
2022/01/20 02:02:58;;;;;;;3.10;2.80;;;;;;;;;;5114458;28;20191;-82
2022/01/20 02:05:27;;;;;;;2.87;2.60;;;;;;;;;;5118100;28;20281;-84
2022/01/20 02:08:26;;;;;;;2.93;2.20;;;;;;;;;;5114682;28;20252;-83
2022/01/20 02:19:11;;;;;;;2.10;1.93;;;;;;;;;;5121352;28;20202;-83
2022/01/20 02:21:48;;;;;;;3.93;3.17;;;;;;;;;;5122057;28;20207;-83
2022/01/20 02:24:15;;;;;;;3.20;2.90;;;;;;;;;;5121494;28;20199;-82
2022/01/20 02:26:45;;;;;;;2.30;2.10;;;;;;;;;;5120925;28;20241;-83
2022/01/20 02:29:12;;;;;;;2.30;2.10;;;;;;;;;;5120444;28;20216;-82
2022/01/20 02:31:39;;;;;;;3.17;2.60;;;;;;;;;;5121985;28;20238;-83
2022/01/20 02:34:10;;;;;;;2.40;2.20;;;;;;;;;;5122299;28;20227;-83
2022/01/20 02:36:39;;;;;;;2.77;2.47;;;;;;;;;;5121343;28;20337;-81
2022/01/20 02:39:21;;;;;;;2.30;2.10;;;;;;;;;;5121401;28;20230;-82
2022/01/20 02:44:51;;;;;;;2.30;2.10;;;;;;;;;;5113604;28;20206;-83
2022/01/20 02:47:19;;;;;;;2.50;2.30;;;;;;;;;;5119198;28;20244;-83
2022/01/20 02:49:46;;;;;;;1.90;1.80;;;;;;;;;;5124929;28;20288;-81
2022/01/20 02:52:13;;;;;;;2.10;2.00;;;;;;;;;;5137050;28;20215;-83
2022/01/20 02:54:42;;;;;;;2.07;1.93;;;;;;;;;;5134171;28;20233;-83
2022/01/20 02:57:09;;;;;;;2.73;2.47;;;;;;;;;;5127508;28;20229;-83
2022/01/20 02:59:38;;;;;;;1.93;1.83;;;;;;;;;;5123815;28;20334;-82
2022/01/20 03:02:06;;;;;;;2.60;2.40;;;;;;;;;;5115716;28;20233;-82
2022/01/20 03:04:33;;;;;;;2.33;2.13;;;;;;;;;;5116242;28;20237;-83
2022/01/20 03:07:01;;;;;;;2.40;2.20;;;;;;;;;;5119732;28;20208;-83
2022/01/20 03:09:28;;;;;;;2.17;1.97;;;;;;;;;;5120374;28;20215;-82
2022/01/20 03:11:57;;;;;;;2.60;2.40;;;;;;;;;;5121330;28;20207;-83
2022/01/20 03:14:24;;;;;;;2.57;2.37;;;;;;;;;;5120670;28;20241;-83
2022/01/20 03:16:52;;;;;;;2.20;2.10;;;;;;;;;;5119064;28;20199;-82
2022/01/20 03:19:19;;;;;;;2.50;2.27;;;;;;;;;;5119735;28;20227;-82
2022/01/20 03:21:46;;;;;;;2.47;2.27;;;;;;;;;;5120153;28;20245;-82
2022/01/20 03:24:14;;;;;;;2.60;2.40;;;;;;;;;;5119181;28;20237;-83
2022/01/20 03:26:41;;;;;;;2.60;2.40;;;;;;;;;;5119199;28;20203;-83
2022/01/20 03:29:11;;;;;;;2.20;2.00;;;;;;;;;;5119507;28;20248;-81
2022/01/20 03:31:38;;;;;;;2.67;2.47;;;;;;;;;;5119405;28;20357;-82
2022/01/20 03:34:06;;;;;;;2.43;2.23;;;;;;;;;;5119598;28;20219;-83
2022/01/20 03:36:33;;;;;;;2.57;2.37;;;;;;;;;;5115219;28;20208;-82
2022/01/20 03:39:00;;;;;;;2.70;2.50;;;;;;;;;;5119029;28;20646;-82
2022/01/20 03:41:28;;;;;;;2.80;2.60;;;;;;;;;;5114626;28;20216;-82
2022/01/20 03:43:55;;;;;;;2.50;2.30;;;;;;;;;;5119094;28;20551;-83
2022/01/20 03:46:24;;;;;;;2.93;2.67;;;;;;;;;;5114468;28;20219;-83
2022/01/20 03:48:53;;;;;;;2.97;2.50;;;;;;;;;;5118346;28;20225;-82
2022/01/20 03:51:21;;;;;;;2.90;2.70;;;;;;;;;;5119387;28;20221;-84
2022/01/20 03:53:49;;;;;;;3.07;2.80;;;;;;;;;;5118965;28;20291;-83
2022/01/20 03:56:17;;;;;;;2.60;2.40;;;;;;;;;;5119005;28;20230;-83
2022/01/20 03:58:44;;;;;;;3.67;2.80;;;;;;;;;;5117876;28;20207;-84
2022/01/20 04:01:11;;;;;;;3.00;2.53;;;;;;;;;;5115915;28;20326;-82
2022/01/20 04:03:40;;;;;;;3.20;2.90;;;;;;;;;;5118375;28;20191;-83
2022/01/20 04:06:08;;;;;;;3.20;3.00;;;;;;;;;;5119015;28;20211;-83
2022/01/20 04:08:36;;;;;;;3.30;3.00;;;;;;;;;;5118137;28;20226;-83
2022/01/20 04:11:04;;;;;;;3.80;2.90;;;;;;;;;;5111342;28;20215;-84
2022/01/20 04:13:32;;;;;;;3.37;3.10;;;;;;;;;;5110047;28;20232;-83
2022/01/20 04:16:00;;;;;;;3.77;3.10;;;;;;;;;;5118316;27;20222;-83
2022/01/20 04:18:28;;;;;;;3.00;2.80;;;;;;;;;;5117030;28;20203;-82
2022/01/20 04:20:57;;;;;;;3.50;3.20;;;;;;;;;;5118273;28;20219;-83
2022/01/20 04:23:24;;;;;;;3.03;2.73;;;;;;;;;;5111749;28;20254;-82
2022/01/20 04:25:52;;;;;;;3.40;3.10;;;;;;;;;;5118117;28;20251;-83
2022/01/20 04:28:19;;;;;;;3.37;3.07;;;;;;;;;;5116682;28;20225;-83
2022/01/20 04:30:46;;;;;;;3.23;2.93;;;;;;;;;;5116025;28;20314;-82
2022/01/20 04:33:13;;;;;;;3.57;3.27;;;;;;;;;;5117873;27;20229;-83
2022/01/20 04:35:41;;;;;;;3.70;3.13;;;;;;;;;;5117466;28;20249;-82
2022/01/20 04:38:09;;;;;;;3.23;2.93;;;;;;;;;;5112022;28;20200;-82
2022/01/20 04:40:41;;;;;;;3.60;3.27;;;;;;;;;;5113774;28;20228;-82
2022/01/20 04:43:08;;;;;;;4.03;3.73;;;;;;;;;;5117922;27;20279;-83
2022/01/20 04:45:41;;;;;;;4.13;3.73;;;;;;;;;;5118087;28;20207;-82
2022/01/20 04:48:25;;;;;;;4.57;4.17;;;;;;;;;;5117491;28;20286;-82
2022/01/20 04:59:08;;;;;;;4.20;3.80;;;;;;;;;;5118130;28;20224;-80
2022/01/20 05:01:36;;;;;;;4.23;3.70;;;;;;;;;;5129051;22;20231;-82
2022/01/20 05:04:04;;;;;;;4.80;4.30;;;;;;;;;;5118466;28;20221;-81
2022/01/20 05:06:31;;;;;;;5.40;4.30;;;;;;;;;;5119148;28;20221;-79
2022/01/20 05:09:00;;;;;;;6.37;4.23;;;;;;;;;;5117958;28;20282;-82
2022/01/20 05:11:27;;;;;;;5.13;4.43;;;;;;;;;;5102562;28;20292;-83
2022/01/20 05:13:54;;;;;;;5.63;5.03;;;;;;;;;;5098136;28;20285;-82
2022/01/20 05:16:24;;;;;;;5.47;4.87;;;;;;;;;;5098507;28;20230;-82
2022/01/20 05:18:51;;;;;;;5.60;5.00;;;;;;;;;;5096308;28;20265;-80
2022/01/20 05:21:18;;;;;;;8.07;5.13;;;;;;;;;;5096940;28;20246;-82
2022/01/20 05:23:45;;;;;;;6.97;5.90;;;;;;;;;;5097278;28;20204;-82
2022/01/20 05:26:14;;;;;;;8.57;5.57;;;;;;;;;;5096830;28;20227;-82
2022/01/20 05:28:42;;;;;;;7.97;5.90;;;;;;;;;;5096675;28;20277;-81
2022/01/20 05:31:09;;;;;;;9.10;5.73;;;;;;;;;;5095882;28;20219;-82
2022/01/20 05:33:36;;;;;;;8.20;5.90;;;;;;;;;;5097597;28;20219;-83
2022/01/20 05:36:04;;;;;;;9.40;5.87;;;;;;;;;;5098017;28;20246;-83
2022/01/20 05:38:31;;;;;;;8.40;5.70;;;;;;;;;;5095489;28;20210;-82
2022/01/20 05:40:58;;;;;;;7.60;5.90;;;;;;;;;;5095103;28;20251;-83
2022/01/20 05:43:27;;;;;;;8.27;5.67;;;;;;;;;;5101755;28;20191;-82
2022/01/20 05:45:54;;;;;;;8.83;5.77;;;;;;;;;;5102305;28;20207;-82
2022/01/20 05:48:32;;;;;;;8.07;6.07;;;;;;;;;;5098141;28;20207;-81
2022/01/20 05:50:59;;;;;;;7.63;5.93;;;;;;;;;;5099397;28;20223;-82
2022/01/20 05:53:27;;;;;;;8.27;6.43;;;;;;;;;;5099209;28;20247;-83
2022/01/20 05:55:54;;;;;;;9.33;6.97;;;;;;;;;;5098502;28;20216;-83
2022/01/20 05:58:21;;;;;;;10.50;7.40;;;;;;;;;;5097639;28;20208;-80
2022/01/20 06:00:50;;;;;;;9.13;7.30;;;;;;;;;;5097811;28;20384;-84
2022/01/20 06:06:03;;;;;;;11.70;7.03;;;;;;;;;;5091631;28;20238;-84
2022/01/20 06:08:30;;;;;;;10.33;7.70;;;;;;;;;;5095452;28;20219;-83
2022/01/20 06:10:57;;;;;;;11.17;7.47;;;;;;;;;;5094968;28;20224;-84
2022/01/20 06:13:24;;;;;;;12.70;8.00;;;;;;;;;;5097517;28;20196;-84
2022/01/20 06:15:53;;;;;;;10.40;8.10;;;;;;;;;;5097150;28;20219;-82
2022/01/20 06:18:21;;;;;;;10.27;6.87;;;;;;;;;;5097700;28;20200;-86
2022/01/20 06:20:48;;;;;;;10.57;6.67;;;;;;;;;;5097921;28;20296;-83
2022/01/20 06:23:16;;;;;;;9.63;6.63;;;;;;;;;;5094603;28;20212;-84
2022/01/20 06:25:45;;;;;;;8.50;6.43;;;;;;;;;;5097070;28;20208;-81
2022/01/20 06:28:13;;;;;;;10.67;7.30;;;;;;;;;;5095726;28;20265;-81
2022/01/20 06:30:40;;;;;;;9.13;6.97;;;;;;;;;;5094358;28;20234;-83
2022/01/20 06:33:09;;;;;;;12.93;7.13;;;;;;;;;;5092385;28;20290;-85
2022/01/20 06:35:36;;;;;;;11.33;6.97;;;;;;;;;;5095666;28;20276;-83
2022/01/20 06:38:07;;;;;;;10.30;7.53;;;;;;;;;;5092384;28;20204;-83
2022/01/20 06:40:34;;;;;;;10.57;7.60;;;;;;;;;;5092299;28;20219;-83
2022/01/20 06:43:02;;;;;;;12.50;7.83;;;;;;;;;;5095454;28;20215;-84
2022/01/20 06:45:29;;;;;;;10.37;6.90;;;;;;;;;;5096025;28;20207;-83
2022/01/20 06:47:57;;;;;;;12.30;7.73;;;;;;;;;;5096967;28;20231;-83
2022/01/20 06:50:25;;;;;;;11.27;7.20;;;;;;;;;;5094144;28;20253;-85
2022/01/20 06:52:53;;;;;;;11.10;6.93;;;;;;;;;;5091566;28;20255;-84
2022/01/20 06:55:20;;;;;;;8.30;5.37;;;;;;;;;;5094084;28;20220;-84
2022/01/20 06:57:48;;;;;;;8.13;5.70;;;;;;;;;;5091312;28;20196;-84
2022/01/20 07:00:16;;;;;;;7.50;5.33;;;;;;;;;;5098329;28;20223;-84
2022/01/20 07:02:44;;;;;;;6.13;5.30;;;;;;;;;;5098695;28;20196;-84
2022/01/20 07:05:12;;;;;;;8.40;6.10;;;;;;;;;;5100784;28;20288;-80
2022/01/20 07:07:41;;;;;;;7.97;6.17;;;;;;;;;;5090372;28;20199;-82
2022/01/20 07:10:10;;;;;;;7.93;5.90;;;;;;;;;;5097874;28;20240;-82
2022/01/20 07:12:38;;;;;;;7.73;5.73;;;;;;;;;;5093667;28;20199;-83
2022/01/20 07:15:06;;;;;;;8.43;5.83;;;;;;;;;;5096938;28;20237;-83
2022/01/20 07:17:33;;;;;;;8.43;5.63;;;;;;;;;;5094620;28;20207;-84
2022/01/20 07:20:00;;;;;;;8.63;5.80;;;;;;;;;;5098027;28;20200;-82
2022/01/20 07:22:28;;;;;;;8.57;5.60;;;;;;;;;;5100188;28;20204;-79
2022/01/20 07:24:56;;;;;;;8.10;5.60;;;;;;;;;;5099920;28;20273;-80
2022/01/20 07:27:24;;;;;;;6.73;5.40;;;;;;;;;;5099594;28;20212;-81
2022/01/20 07:29:52;;;;;;;7.90;5.60;;;;;;;;;;5099225;28;20226;-80
2022/01/20 07:32:20;;;;;;;7.90;5.53;;;;;;;;;;5099867;28;20207;-82
2022/01/20 07:34:47;;;;;;;7.93;5.30;;;;;;;;;;5095512;28;20356;-81
2022/01/20 07:37:14;;;;;;;6.60;5.30;;;;;;;;;;5094680;28;20204;-86
2022/01/20 07:39:42;;;;;;;7.97;5.00;;;;;;;;;;5090411;28;20210;-81
2022/01/20 07:42:10;;;;;;;7.67;5.77;;;;;;;;;;5095551;28;20357;-82
2022/01/20 07:44:38;;;;;;;8.63;5.30;;;;;;;;;;5087192;28;20243;-83
2022/01/20 07:47:05;;;;;;;8.50;5.97;;;;;;;;;;5102261;28;20208;-81
2022/01/20 07:49:33;;;;;;;9.80;5.13;;;;;;;;;;5100603;28;20220;-80
2022/01/20 07:52:00;;;;;;;10.47;5.20;;;;;;;;;;5096268;28;20306;-79
2022/01/20 07:54:30;;;;;;;8.20;4.80;;;;;;;;;;5097836;28;20192;-81
2022/01/20 07:56:57;;;;;;;13.13;5.33;;;;;;;;;;5104471;28;20211;-78
2022/01/20 07:59:26;;;;;;;9.77;5.13;;;;;;;;;;5110223;28;20230;-81
2022/01/20 08:01:53;;;;;;;8.70;5.07;;;;;;;;;;5109373;28;20247;-82
2022/01/20 08:04:20;;;;;;;7.53;4.90;;;;;;;;;;5101223;28;20261;-84
2022/01/20 08:06:48;;;;;;;8.50;4.83;;;;;;;;;;5096160;28;20188;-83
2022/01/20 08:09:15;;;;;;;10.57;4.73;;;;;;;;;;5099411;28;20200;-81
2022/01/20 08:11:42;;;;;;;8.20;4.70;;;;;;;;;;5099767;28;20216;-81
2022/01/20 08:14:10;;;;;;;10.70;4.73;;;;;;;;;;5093734;28;20219;-81
2022/01/20 08:16:38;;;;;;;9.93;4.73;;;;;;;;;;5098119;28;20279;-78
2022/01/20 08:19:06;;;;;;;6.10;4.23;;;;;;;;;;5092205;28;20203;-81
2022/01/20 08:21:33;;;;;;;6.83;4.03;;;;;;;;;;5089831;28;20242;-83
2022/01/20 08:24:00;;;;;;;7.07;4.23;;;;;;;;;;5095993;28;20200;-80
2022/01/20 08:26:28;;;;;;;8.47;4.40;;;;;;;;;;5095791;28;20195;-80
2022/01/20 08:28:55;;;;;;;7.33;4.20;;;;;;;;;;5099085;28;20234;-80
2022/01/20 08:31:22;;;;;;;9.17;3.87;;;;;;;;;;5100466;28;20266;-82
2022/01/20 08:33:51;;;;;;;9.00;3.80;;;;;;;;;;5105301;28;20208;-81
2022/01/20 08:36:18;;;;;;;7.30;4.00;;;;;;;;;;5099234;28;20302;-81
2022/01/20 08:38:45;;;;;;;8.60;3.90;;;;;;;;;;5099502;28;20208;-82
2022/01/20 08:41:13;;;;;;;5.77;4.40;;;;;;;;;;5099630;28;20254;-81
2022/01/20 08:43:40;;;;;;;8.30;4.90;;;;;;;;;;5099929;28;20257;-79
2022/01/20 08:46:08;;;;;;;9.30;4.30;;;;;;;;;;5098279;28;20266;-79
2022/01/20 08:48:35;;;;;;;5.37;3.70;;;;;;;;;;5096669;28;20665;-81
2022/01/20 08:51:04;;;;;;;7.00;3.83;;;;;;;;;;5098821;28;20307;-81
2022/01/20 08:53:32;;;;;;;6.50;3.43;;;;;;;;;;5099994;28;20229;-80
2022/01/20 08:55:59;;;;;;;3.93;3.40;;;;;;;;;;5094822;28;20250;-80
2022/01/20 08:58:27;;;;;;;7.07;4.07;;;;;;;;;;5099230;28;20231;-81
2022/01/20 09:00:54;;;;;;;6.07;4.00;;;;;;;;;;5097646;28;20282;-81
2022/01/20 09:03:22;;;;;;;5.90;3.83;;;;;;;;;;5097710;28;20227;-80
2022/01/20 09:05:49;;;;;;;9.13;3.60;;;;;;;;;;5098342;28;20208;-81
2022/01/20 09:08:19;;;;;;;5.17;3.20;;;;;;;;;;5098793;28;20299;-81
2022/01/20 09:10:53;;;;;;;5.43;3.87;;;;;;;;;;5098816;28;20223;-80
2022/01/20 09:16:05;;;;;;;5.50;3.40;;;;;;;;;;5093654;28;20227;-82
2022/01/20 09:18:33;;;;;;;4.70;3.77;;;;;;;;;;5091449;28;20212;-82
2022/01/20 09:21:00;;;;;;;5.70;3.53;;;;;;;;;;5099092;28;20255;-82
2022/01/20 09:23:30;;;;;;;5.30;3.90;;;;;;;;;;5102339;28;20219;-80
2022/01/20 09:25:57;;;;;;;9.27;4.03;;;;;;;;;;5099913;28;20214;-83
2022/01/20 09:28:26;;;;;;;6.07;3.80;;;;;;;;;;5099960;28;20229;-84
2022/01/20 09:30:57;;;;;;;6.10;3.87;;;;;;;;;;5096204;28;20227;-83
2022/01/20 09:33:28;;;;;;;8.30;3.90;;;;;;;;;;5099943;28;20196;-82
2022/01/20 09:35:56;;;;;;;6.73;3.27;;;;;;;;;;5097346;28;20232;-82
2022/01/20 09:38:24;;;;;;;8.73;3.73;;;;;;;;;;5101146;28;20208;-83
2022/01/20 09:40:52;;;;;;;6.03;3.60;;;;;;;;;;5101818;28;20284;-79
2022/01/20 09:43:20;;;;;;;7.60;3.60;;;;;;;;;;5100641;28;20206;-80
2022/01/20 09:45:50;;;;;;;11.10;3.70;;;;;;;;;;5100245;28;20227;-82
2022/01/20 09:48:18;;;;;;;9.10;4.03;;;;;;;;;;5098451;28;20267;-82
2022/01/20 09:50:46;;;;;;;9.93;3.80;;;;;;;;;;5100067;28;20231;-82
2022/01/20 09:53:14;;;;;;;8.13;3.20;;;;;;;;;;5099459;28;20196;-81
2022/01/20 09:55:42;;;;;;;7.83;3.30;;;;;;;;;;5099547;28;20281;-83
2022/01/20 09:58:11;;;;;;;7.90;3.60;;;;;;;;;;5098820;28;20224;-82
2022/01/20 10:00:39;;;;;;;5.97;3.37;;;;;;;;;;5096530;28;20272;-81
2022/01/20 10:03:10;;;;;;;6.73;3.37;;;;;;;;;;5098920;28;20212;-82
2022/01/20 10:05:38;;;;;;;7.67;3.87;;;;;;;;;;5098903;28;20265;-82
2022/01/20 10:08:09;;;;;;;8.27;3.97;;;;;;;;;;5099757;28;20241;-82
2022/01/20 10:10:38;;;;;;;8.00;3.73;;;;;;;;;;5099065;28;20216;-79
2022/01/20 10:13:05;;;;;;;5.73;3.50;;;;;;;;;;5100078;28;20200;-82
2022/01/20 10:15:34;;;;;;;7.90;3.80;;;;;;;;;;5100370;28;20211;-83
2022/01/20 10:18:10;;;;;;;6.13;3.67;;;;;;;;;;5094725;28;20192;-81
2022/01/20 10:20:38;;;;;;;7.47;3.60;;;;;;;;;;5096822;28;20222;-82
2022/01/20 10:23:05;;;;;;;7.47;3.67;;;;;;;;;;5096782;28;20200;-82
2022/01/20 10:25:38;;;;;;;6.87;3.77;;;;;;;;;;5101385;28;20204;-83
2022/01/20 10:28:05;;;;;;;9.97;4.00;;;;;;;;;;5092188;28;20199;-82
2022/01/20 10:30:34;;;;;;;9.23;4.00;;;;;;;;;;5098944;28;20236;-82
2022/01/20 10:33:03;;;;;;;6.93;4.27;;;;;;;;;;5099630;28;20250;-83
2022/01/20 10:35:34;;;;;;;7.30;4.43;;;;;;;;;;5097902;28;20196;-81
2022/01/20 10:38:11;;;;;;;10.37;4.37;;;;;;;;;;5099403;28;20353;-83
2022/01/20 10:40:46;;;;;;;8.80;4.40;;;;;;;;;;5101356;28;20239;-83
2022/01/20 10:43:20;;;;;;;6.53;3.60;;;;;;;;;;5110840;28;20191;-81
2022/01/20 10:45:47;;;;;;;5.87;3.67;;;;;;;;;;5110704;28;20204;-80
2022/01/20 10:48:19;;;;;;;7.93;4.00;;;;;;;;;;5114268;28;20234;-84
2022/01/20 10:50:48;;;;;;;7.57;4.00;;;;;;;;;;5114758;28;20231;-83
2022/01/20 10:53:19;;;;;;;5.73;3.47;;;;;;;;;;5112478;28;20204;-81
2022/01/20 10:55:47;;;;;;;6.13;3.80;;;;;;;;;;5113181;28;20223;-83
2022/01/20 10:58:15;;;;;;;6.97;4.13;;;;;;;;;;5111098;28;20234;-83
2022/01/20 11:00:47;;;;;;;6.40;3.90;;;;;;;;;;5125057;22;20208;-86
2022/01/20 11:03:16;;;;;;;7.77;3.83;;;;;;;;;;5117245;27;20202;-86
2022/01/20 11:05:49;;;;;;;7.73;4.13;;;;;;;;;;5114461;28;20199;-87
2022/01/20 11:08:17;;;;;;;11.40;4.63;;;;;;;;;;5114444;28;20714;-87
2022/01/20 11:10:45;;;;;;;5.13;3.87;;;;;;;;;;5109596;28;20224;-87
2022/01/20 11:13:15;;;;;;;8.10;4.93;;;;;;;;;;5104336;28;20409;-87
2022/01/20 11:15:47;;;;;;;7.60;4.23;;;;;;;;;;5108944;27;20199;-89
2022/01/20 11:21:00;;;;;;;6.33;4.10;;;;;;;;;;5116579;28;20246;-87
2022/01/20 11:23:36;;;;;;;10.57;4.57;;;;;;;;;;5117701;28;20259;-87
2022/01/20 11:26:05;;;;;;;7.00;4.47;;;;;;;;;;5106454;27;20215;-87
2022/01/20 11:28:32;;;;;;;8.23;4.37;;;;;;;;;;5107968;28;20226;-86
2022/01/20 11:31:03;;;;;;;9.33;4.10;;;;;;;;;;5109810;27;20223;-87
2022/01/20 11:33:34;;;;;;;8.10;4.20;;;;;;;;;;5107821;28;20691;-88
2022/01/20 11:36:05;;;;;;;10.80;4.40;;;;;;;;;;5115601;27;20233;-86
2022/01/20 11:38:41;;;;;;;6.40;3.63;;;;;;;;;;5113032;28;20195;-87
2022/01/20 11:41:08;;;;;;;4.07;3.17;;;;;;;;;;5100160;28;20246;-87
2022/01/20 11:43:38;;;;;;;7.07;3.47;;;;;;;;;;5096241;28;20216;-87
2022/01/20 11:46:11;;;;;;;5.63;3.40;;;;;;;;;;5111081;28;20210;-86
2022/01/20 11:48:49;;;;;;;6.20;2.97;;;;;;;;;;5116826;27;20259;-86
2022/01/20 11:51:19;;;;;;;4.37;3.43;;;;;;;;;;5111735;28;20226;-86
2022/01/20 11:53:55;;;;;;;4.23;2.70;;;;;;;;;;5098919;28;20219;-88
2022/01/20 11:56:29;;;;;;;4.63;2.97;;;;;;;;;;5099639;28;20219;-87
2022/01/20 11:59:01;;;;;;;5.67;3.10;;;;;;;;;;5104620;28;20204;-87
2022/01/20 12:01:30;;;;;;;7.60;2.80;;;;;;;;;;5105286;28;20238;-87
2022/01/20 12:04:00;;;;;;;4.30;3.10;;;;;;;;;;5105038;28;20199;-87
2022/01/20 12:06:38;;;;;;;6.20;3.10;;;;;;;;;;5106211;28;20203;-87
2022/01/20 12:09:07;;;;;;;4.80;2.90;;;;;;;;;;5111023;28;20194;-87
2022/01/20 12:11:35;;;;;;;6.27;2.80;;;;;;;;;;5102541;28;20268;-87
2022/01/20 12:14:03;;;;;;;5.80;3.50;;;;;;;;;;5107859;28;20208;-87
2022/01/20 12:16:41;;;;;;;;;;;;;;;;;;;;;
2022/01/20 12:19:12;;;;;;;3.80;1.80;;;;;;;;;;5112229;27;20203;-86
2022/01/20 12:21:50;;;;;;;3.10;1.63;;;;;;;;;;5104869;28;20319;-87
2022/01/20 12:24:17;;;;;;;3.90;2.30;;;;;;;;;;5109744;28;20199;-88
2022/01/20 12:26:44;;;;;;;3.43;2.07;;;;;;;;;;5101892;28;20264;-86
2022/01/20 12:29:12;;;;;;;3.53;2.60;;;;;;;;;;5112377;27;20203;-85
2022/01/20 12:31:52;;;;;;;3.87;2.20;;;;;;;;;;5103513;28;20223;-85
2022/01/20 12:34:46;;;;;;;3.53;2.37;;;;;;;;;;5100288;28;20203;-90
2022/01/20 12:37:19;;;;;;;6.10;2.87;;;;;;;;;;5095334;28;20315;-86
2022/01/20 12:39:47;;;;;;;8.27;2.90;;;;;;;;;;5105130;28;20211;-86
2022/01/20 12:42:17;;;;;;;8.97;3.40;;;;;;;;;;5095654;28;20227;-86
2022/01/20 12:45:03;;;;;;;6.27;4.00;;;;;;;;;;5103137;28;20287;-84
2022/01/20 12:47:38;;;;;;;5.83;3.80;;;;;;;;;;5107138;27;20210;-86
2022/01/20 12:50:10;;;;;;;8.23;3.50;;;;;;;;;;5105149;28;20207;-86
2022/01/20 12:52:46;;;;;;;11.70;3.57;;;;;;;;;;5097454;28;20261;-85
2022/01/20 12:55:20;;;;;;;8.53;3.37;;;;;;;;;;5099248;28;20215;-86
2022/01/20 12:57:58;;;;;;;10.20;4.60;;;;;;;;;;5095103;28;20323;-86
2022/01/20 13:00:36;;;;;;;10.03;3.73;;;;;;;;;;5096131;28;20200;-86
2022/01/20 13:03:22;;;;;;;7.50;3.50;;;;;;;;;;5103799;28;20301;-86
2022/01/20 13:05:52;;;;;;;8.73;3.70;;;;;;;;;;5114799;28;20195;-86
2022/01/20 15:03:22;;;;;;;;;;;;;;;;;;;;;
2022/01/20 15:06:13;;;;;;;11.33;5.07;;;;;;;;;;5036551;28;20205;-86
2022/01/20 15:08:45;;;;;;;9.97;4.77;;;;;;;;;;5031738;28;20217;-88
2022/01/20 15:11:28;;;;;;;14.43;7.10;;;;;;;;;;5036161;28;20224;-88
2022/01/20 15:14:20;;;;;;;12.70;5.33;;;;;;;;;;5042819;28;20266;-87
2022/01/20 15:17:07;;;;;;;9.50;5.00;;;;;;;;;;5038660;28;20225;-87
2022/01/20 15:19:37;;;;;;;10.17;4.63;;;;;;;;;;5036337;28;20209;-87
2022/01/20 15:22:05;;;;;;;11.43;4.10;;;;;;;;;;5037060;28;20230;-88
2022/01/20 15:24:38;;;;;;;12.27;4.77;;;;;;;;;;5036726;28;20206;-88
2022/01/20 15:27:14;;;;;;;7.40;5.10;;;;;;;;;;5037032;28;20210;-88
2022/01/20 15:29:46;;;;;;;9.47;4.03;;;;;;;;;;5035103;28;20198;-90
2022/01/20 15:32:26;;;;;;;11.00;4.17;;;;;;;;;;5036145;28;20230;-89
2022/01/20 15:34:57;;;;;;;8.40;4.20;;;;;;;;;;5025606;28;20324;-89
2022/01/20 15:37:26;;;;;;;9.33;4.20;;;;;;;;;;5034108;28;20218;-89
2022/01/20 15:39:57;;;;;;;11.90;4.10;;;;;;;;;;5034122;28;20206;-89
2022/01/20 15:42:31;;;;;;;12.60;4.37;;;;;;;;;;5037634;28;20217;-89
2022/01/20 15:48:09;;;;;;;5.27;3.10;;;;;;;;;;5030465;28;20198;-88
2022/01/20 15:50:39;;;;;;;4.33;2.90;;;;;;;;;;5038126;28;20227;-89
2022/01/20 15:53:07;;;;;;;5.60;3.10;;;;;;;;;;5036841;28;20243;-89
2022/01/20 15:58:16;;;;;;;6.90;3.50;;;;;;;;;;5045386;28;20222;-88
2022/01/20 16:00:46;;;;;;;8.47;2.80;;;;;;;;;;5041207;28;20226;-88
2022/01/20 16:03:22;;;;;;;5.97;2.77;;;;;;;;;;5057496;28;20209;-88
2022/01/20 16:05:51;;;;;;;5.27;2.90;;;;;;;;;;5056605;28;20273;-89
2022/01/20 16:08:23;;;;;;;6.07;3.13;;;;;;;;;;5061579;28;20197;-88
2022/01/20 16:10:50;;;;;;;4.73;2.80;;;;;;;;;;5052710;28;20237;-88
2022/01/20 16:13:21;;;;;;;4.60;2.70;;;;;;;;;;5050304;28;20205;-88
2022/01/20 16:15:48;;;;;;;5.93;2.57;;;;;;;;;;5063488;28;20201;-88
2022/01/20 16:18:20;;;;;;;4.73;2.60;;;;;;;;;;5056514;28;20220;-88
2022/01/20 16:20:48;;;;;;;8.13;3.47;;;;;;;;;;5056172;28;20233;-87
2022/01/20 16:23:16;;;;;;;6.20;2.87;;;;;;;;;;5055490;28;20243;-88
2022/01/20 16:25:44;;;;;;;4.43;2.50;;;;;;;;;;5060251;28;20370;-88
2022/01/20 16:28:15;;;;;;;4.60;2.13;;;;;;;;;;5056322;28;20216;-88
2022/01/20 16:30:45;;;;;;;5.37;2.90;;;;;;;;;;5065023;28;20252;-88
2022/01/20 16:33:16;;;;;;;5.63;2.60;;;;;;;;;;5073208;28;20209;-89
2022/01/20 16:35:46;;;;;;;3.93;2.60;;;;;;;;;;5062710;28;20213;-88
2022/01/20 16:38:14;;;;;;;4.40;2.40;;;;;;;;;;5049811;28;20268;-88
2022/01/20 16:40:43;;;;;;;6.60;2.90;;;;;;;;;;5059545;28;20224;-89
2022/01/20 16:43:11;;;;;;;3.60;2.43;;;;;;;;;;5055321;28;20233;-89
2022/01/20 16:45:38;;;;;;;3.83;2.93;;;;;;;;;;5055591;28;20231;-88
2022/01/20 16:48:10;;;;;;;4.60;2.20;;;;;;;;;;5055078;28;20208;-88
2022/01/20 16:50:42;;;;;;;6.20;3.00;;;;;;;;;;5054130;28;20215;-88
2022/01/20 16:53:14;;;;;;;5.87;2.97;;;;;;;;;;5056072;28;20205;-89
2022/01/20 16:55:43;;;;;;;4.03;3.63;;;;;;;;;;5054484;28;20235;-88
2022/01/20 16:58:11;;;;;;;6.40;2.77;;;;;;;;;;5053839;28;20221;-88
2022/01/20 17:03:40;;;;;;;6.77;3.07;;;;;;;;;;5054483;28;20225;-83
2022/01/20 17:06:24;;;;;;;5.67;3.00;;;;;;;;;;5054193;28;20223;-82
2022/01/20 17:09:05;;;;;;;4.40;2.80;;;;;;;;;;5058124;28;20305;-80
2022/01/20 17:11:48;;;;;;;5.43;2.50;;;;;;;;;;5077355;28;20224;-81
2022/01/20 17:14:30;;;;;;;4.30;2.50;;;;;;;;;;5078040;28;20216;-82
2022/01/20 17:17:08;;;;;;;4.80;2.70;;;;;;;;;;5079106;28;20204;-82
2022/01/20 17:25:17;;;;;;;3.50;2.23;;;;;;;;;;5080482;28;20254;-84
2022/01/20 17:27:56;;;;;;;4.83;2.47;;;;;;;;;;5079334;28;20290;-79
2022/01/20 17:30:31;;;;;;;4.77;2.60;;;;;;;;;;5084778;28;20235;-81
2022/01/20 17:38:47;;;;;;;3.73;2.50;;;;;;;;;;5055197;28;20228;-81
2022/01/20 17:41:44;;;;;;;7.90;2.57;;;;;;;;;;5057475;28;20229;-80
2022/01/20 17:44:18;;;;;;;5.63;2.50;;;;;;;;;;5058422;28;20224;-84
2022/01/20 17:46:45;;;;;;;5.47;2.47;;;;;;;;;;5074985;28;20325;-81
2022/01/20 17:49:23;;;;;;;5.10;2.57;;;;;;;;;;5078405;28;20204;-82
2022/01/20 17:52:18;;;;;;;4.50;2.57;;;;;;;;;;5081601;28;20224;-82
2022/01/20 17:54:49;;;;;;;7.83;2.60;;;;;;;;;;5085651;28;20791;-80
2022/01/20 17:57:29;;;;;;;4.27;2.63;;;;;;;;;;5082439;28;20238;-82
2022/01/20 18:00:31;;;;;;;;;;;;;;;;;;;;;
2022/01/20 18:03:05;;;;;;;5.53;2.80;;;;;;;;;;5074158;28;20228;-82
2022/01/20 18:05:36;;;;;;;5.57;2.90;;;;;;;;;;5078971;28;20200;-81
2022/01/20 18:08:10;;;;;;;7.13;3.50;;;;;;;;;;5077253;28;20213;-81
2022/01/20 18:10:55;;;;;;;;;;;;;;;;;;;;;